Time;durP1;ratioP1;P1;durP2;ratioP2;P2;SDS_P1;SDS_P2;PMS_P1;PMS_P2;Temp;Humidity;BMP_temperature;BMP_pressure;BME280_temperature;BME280_humidity;BME280_pressure;Samples;Min_cycle;Max_cycle;Signal;HPM_P1;HPM_P2
2021/03/28 00:00:07;;;;;;;;;21.29;20.29;;;;;14.05;46.95;99725.28;5682144;27;6517163;-63
2021/03/28 00:03:20;;;;;;;;;22.00;22.00;;;;;14.05;46.90;99706.31;5678011;27;4211702;-63
2021/03/28 00:06:29;;;;;;;;;21.29;19.71;;;;;14.01;46.82;99712.41;5682459;27;6510643;-63
2021/03/28 00:09:44;;;;;;;;;20.71;19.14;;;;;14.00;47.04;99713.47;5684301;27;6495285;-63
2021/03/28 00:12:48;;;;;;;;;20.57;20.00;;;;;14.02;46.85;99711.38;5660961;27;5759600;-63
2021/03/28 00:16:07;;;;;;;;;24.00;21.83;;;;;14.01;46.26;99701.56;5693099;27;5756788;-63
2021/03/28 00:19:32;;;;;;;;;21.71;19.43;;;;;14.00;46.14;99716.19;5681556;27;6510582;-63
2021/03/28 00:22:46;;;;;;;;;18.00;17.57;;;;;13.97;46.25;99708.50;5650295;27;6489769;-63
2021/03/28 00:25:57;;;;;;;;;17.00;16.50;;;;;13.98;45.83;99699.28;5649058;27;5731390;-63
2021/03/28 00:29:12;;;;;;;;;18.00;16.57;;;;;13.92;45.72;99700.22;5693589;27;6480330;-63
2021/03/28 00:32:20;;;;;;;;;20.00;19.00;;;;;13.85;45.91;99706.50;5671302;27;3920050;-63
2021/03/28 00:35:29;;;;;;;;;20.00;18.33;;;;;13.84;46.10;99696.72;5640624;28;5756417;-62
2021/03/28 00:38:48;;;;;;;;;20.33;18.67;;;;;13.66;46.23;99680.44;5669059;28;5735593;-63
2021/03/28 00:42:02;;;;;;;;;18.00;17.00;;;;;13.76;46.26;99710.56;5668883;28;6476171;-63
2021/03/28 00:45:21;;;;;;;;;19.86;19.00;;;;;13.69;46.38;99726.03;5668635;28;6520967;-63
2021/03/28 00:48:28;;;;;;;;;19.71;19.29;;;;;13.77;46.08;99720.34;5641195;27;5900811;-63
2021/03/28 00:51:42;;;;;;;;;20.00;19.00;;;;;13.72;46.24;99725.63;5645816;28;4576844;-63
2021/03/28 00:54:52;;;;;;;;;21.00;18.43;;;;;13.67;46.15;99721.91;5657603;28;6491844;-62
2021/03/28 00:58:11;;;;;;;;;21.71;20.71;;;;;13.69;46.59;99725.22;5655852;28;6523081;-63
2021/03/28 01:01:28;;;;;;;;;21.00;20.00;;;;;13.69;46.62;99728.75;5669279;27;6501178;-62
2021/03/28 01:04:50;;;;;;;;;19.00;19.00;;;;;13.63;46.64;99737.78;5667165;28;6493908;-62
2021/03/28 01:08:01;;;;;;;;;22.00;20.67;;;;;13.53;47.07;99747.44;5648443;27;4608924;-62
2021/03/28 01:11:14;;;;;;;;;20.33;19.00;;;;;13.58;46.66;99750.31;5654255;28;3927332;-62
2021/03/28 01:14:39;;;;;;;;;21.00;20.00;;;;;13.59;46.85;99741.13;5667920;28;6516855;-62
2021/03/28 01:17:49;;;;;;;;;23.50;20.83;;;;;13.64;47.12;99752.13;5684283;27;5783941;-62
2021/03/28 01:21:04;;;;;;;;;23.50;21.50;;;;;13.61;46.82;99747.16;5621729;28;6516810;-62
2021/03/28 01:24:29;;;;;;;;;25.75;24.75;;;;;13.59;46.97;99735.72;5668588;27;6516839;-62
2021/03/28 01:27:45;;;;;;;;;23.67;21.00;;;;;13.73;46.92;99764.38;5655518;27;4288771;-62
2021/03/28 01:30:54;;;;;;;;;22.33;19.33;;;;;13.68;46.09;99764.22;5666866;28;5779341;-62
2021/03/28 01:34:03;;;;;;;;;20.00;19.33;;;;;13.65;45.84;99765.47;5654170;28;4287197;-62
2021/03/28 01:37:12;;;;;;;;;18.17;15.67;;;;;13.44;43.30;99755.00;5640802;27;5752211;-62
2021/03/28 01:40:24;;;;;;;;;18.83;17.17;;;;;13.47;43.41;99757.28;5667213;27;5740817;-62
2021/03/28 01:43:39;;;;;;;;;16.00;15.00;;;;;13.52;43.46;99753.91;5661739;28;6460584;-62
2021/03/28 01:46:59;;;;;;;;;16.17;14.17;;;;;13.50;42.58;99756.00;5667765;27;5705370;-62
2021/03/28 01:50:28;;;;;;;;;13.00;12.00;;;;;13.43;40.93;99754.19;5670912;27;5698055;-62
2021/03/28 01:53:46;;;;;;;;;11.33;10.67;;;;;13.40;41.54;99751.91;5658969;28;4950271;-62
2021/03/28 01:57:00;;;;;;;;;12.83;10.83;;;;;13.27;41.05;99734.91;5667107;27;4957602;-62
2021/03/28 02:00:29;;;;;;;;;9.60;9.60;;;;;13.39;41.34;99754.81;5666530;28;4900186;-62
2021/03/28 02:03:46;;;;;;;;;12.00;11.00;;;;;13.44;41.20;99760.41;5667131;28;4951612;-62
2021/03/28 02:07:26;;;;;;;;;13.67;10.67;;;;;13.47;41.46;99753.72;5666435;28;4936760;-62
2021/03/28 02:10:54;;;;;;;;;12.17;10.00;;;;;13.30;40.90;99726.34;5649957;28;4951257;-62
2021/03/28 02:14:17;;;;;;;;;10.60;9.60;;;;;13.20;41.51;99709.75;5667003;28;4935647;-63
2021/03/28 02:17:44;;;;;;;;;16.67;14.33;;;;;13.50;41.76;99747.88;5661051;27;5737648;-62
2021/03/28 02:21:11;;;;;;;;;12.00;11.80;;;;;13.44;41.60;99753.09;5688624;27;4944990;-62
2021/03/28 02:24:25;;;;;;;;;13.67;12.33;;;;;13.47;41.70;99749.16;5689969;27;5702264;-62
2021/03/28 02:27:40;;;;;;;;;12.00;11.00;;;;;13.48;41.21;99761.66;5689729;27;4948576;-62
2021/03/28 02:30:53;;;;;;;;;14.50;13.00;;;;;13.47;40.98;99768.13;5690285;27;5707453;-63
2021/03/28 02:34:13;;;;;;;;;14.33;12.00;;;;;13.39;41.31;99750.22;5689900;27;5672050;-62
2021/03/28 02:37:27;;;;;;;;;13.29;12.00;;;;;13.55;40.78;99765.13;5683416;27;5700158;-63
2021/03/28 02:40:41;;;;;;;;;13.67;13.17;;;;;13.55;41.03;99777.84;5657062;27;4973244;-62
2021/03/28 02:43:50;;;;;;;;;14.00;13.00;;;;;13.56;40.66;99774.91;5665237;28;5712678;-63
2021/03/28 02:47:10;;;;;;;;;17.00;15.33;;;;;13.48;40.85;99791.44;5651128;28;4564810;-62
2021/03/28 02:50:57;;;;;;;;;15.29;14.71;;;;;13.46;40.94;99785.41;5664825;27;6454293;-63
2021/03/28 02:54:29;;;;;;;;;14.80;14.20;;;;;13.43;40.78;99793.97;5661352;28;4966867;-63
2021/03/28 02:57:44;;;;;;;;;16.71;15.00;;;;;13.41;41.42;99801.47;5663066;28;6448392;-63
2021/03/28 03:01:30;;;;;;;;;14.86;13.00;;;;;13.44;42.02;99804.59;5669544;28;6439743;-62
2021/03/28 03:04:54;;;;;;;;;17.14;15.71;;;;;13.47;41.29;99802.50;5671070;27;5762759;-63
2021/03/28 03:08:09;;;;;;;;;14.71;13.00;;;;;13.50;41.87;99812.88;5671053;27;5708607;-63
2021/03/28 03:11:43;;;;;;;;;15.17;15.00;;;;;13.40;40.23;99824.19;5671002;28;5725180;-62
2021/03/28 03:15:04;;;;;;;;;15.00;14.00;;;;;13.38;40.58;99834.44;5641713;28;5703282;-62
2021/03/28 03:18:43;;;;;;;;;15.00;13.40;;;;;13.31;40.54;99834.47;5650277;27;4518975;-62
2021/03/28 03:22:25;;;;;;;;;12.17;11.17;;;;;13.20;40.42;99829.72;5640430;27;4967329;-62
2021/03/28 03:26:00;;;;;;;;;13.17;11.00;;;;;13.18;40.73;99837.25;5670961;27;5704372;-62
2021/03/28 03:29:36;;;;;;;;;13.00;11.17;;;;;13.07;40.57;99848.72;5670528;28;5676216;-62
2021/03/28 03:33:10;;;;;;;;;13.17;12.17;;;;;13.06;41.09;99862.44;5670403;28;5696003;-62
2021/03/28 03:36:28;;;;;;;;;13.17;13.00;;;;;12.99;41.33;99870.63;5664341;28;5712696;-62
2021/03/28 03:39:50;;;;;;;;;11.00;11.00;;;;;12.81;41.36;99863.16;5670317;27;4953359;-62
2021/03/28 03:43:22;;;;;;;;;12.00;11.00;;;;;12.70;41.32;99877.34;5663809;27;4941951;-62
2021/03/28 03:46:40;;;;;;;;;11.00;10.20;;;;;12.64;42.26;99871.94;5682629;28;4941200;-62
2021/03/28 03:50:07;;;;;;;;;11.83;11.00;;;;;12.63;42.08;99875.69;5669961;27;5689781;-62
2021/03/28 03:53:23;;;;;;;;;11.00;9.40;;;;;12.50;42.21;99873.84;5670783;28;4918935;-63
2021/03/28 03:56:40;;;;;;;;;13.00;11.00;;;;;12.36;42.47;99875.75;5675677;27;5682425;-62
2021/03/28 03:59:59;;;;;;;;;11.00;10.00;;;;;12.30;42.78;99879.28;5692665;27;5675135;-63
2021/03/28 04:03:15;;;;;;;;;11.00;10.40;;;;;12.25;43.45;99881.75;5664887;27;4931445;-63
2021/03/28 04:06:40;;;;;;;;;11.60;11.00;;;;;12.24;43.02;99882.81;5659680;28;4966870;-63
2021/03/28 04:10:03;;;;;;;;;13.00;12.33;;;;;12.17;43.26;99890.06;5643914;28;4962718;-63
2021/03/28 04:13:41;;;;;;;;;14.00;13.00;;;;;12.03;43.73;99885.69;5661036;27;5721643;-62
2021/03/28 04:17:01;;;;;;;;;15.00;14.00;;;;;11.94;43.68;99879.66;5663842;27;5720935;-62
2021/03/28 04:20:17;;;;;;;;;16.33;14.83;;;;;11.96;43.75;99901.09;5663954;27;5731409;-62
2021/03/28 04:23:48;;;;;;;;;16.67;16.00;;;;;11.92;43.92;99906.09;5635492;28;5734538;-62
2021/03/28 04:27:27;;;;;;;;;18.00;17.00;;;;;11.95;44.09;99921.03;5657374;28;5731829;-62
2021/03/28 04:30:53;;;;;;;;;16.71;16.00;;;;;11.93;44.29;99926.63;5651611;28;6496001;-62
2021/03/28 04:34:07;;;;;;;;;17.17;17.17;;;;;11.92;44.54;99927.69;5670612;27;5738793;-62
2021/03/28 04:37:30;;;;;;;;;17.57;16.29;;;;;11.78;44.50;99919.78;5657138;28;6491821;-62
2021/03/28 04:40:58;;;;;;;;;18.38;17.00;;;;;11.92;44.44;99930.41;5639370;28;7226177;-62
2021/03/28 04:44:47;;;;;;;;;20.00;18.00;;;;;11.90;44.37;99939.72;5653868;28;3912757;-62
2021/03/28 04:48:36;;;;;;;;;19.71;18.00;;;;;11.83;44.55;99941.56;5641038;27;5738792;-62
2021/03/28 04:52:35;;;;;;;;;17.29;17.00;;;;;11.83;44.65;99946.97;5655503;27;5758621;-62
2021/03/28 04:56:04;;;;;;;;;19.67;18.00;;;;;11.81;44.54;99944.50;5682003;27;5739771;-62
2021/03/28 04:59:47;;;;;;;;;18.33;17.33;;;;;11.68;44.60;99933.59;5689340;27;5732468;-62
2021/03/28 05:03:10;;;;;;;;;17.00;16.00;;;;;11.77;44.73;99956.75;5661289;27;5770991;-62
2021/03/28 05:06:46;;;;;;;;;17.00;16.00;;;;;11.75;44.71;99953.41;5690334;27;5742977;-62
2021/03/28 05:10:30;;;;;;;;;16.00;14.00;;;;;11.90;44.40;99955.94;5665420;27;5737656;-62
2021/03/28 05:14:10;;;;;;;;;16.00;14.83;;;;;11.93;44.54;99950.97;5645178;27;5740134;-62
2021/03/28 05:17:48;;;;;;;;;16.86;15.43;;;;;12.05;44.28;99967.41;5657267;28;5754485;-62
2021/03/28 05:21:42;;;;;;;;;16.00;15.29;;;;;11.96;43.61;99953.28;5646067;27;6485638;-62
2021/03/28 05:25:27;;;;;;;;;16.33;14.33;;;;;12.06;43.84;99969.09;5663251;28;5728266;-62
2021/03/28 05:28:53;;;;;;;;;15.50;14.50;;;;;12.13;43.55;99972.63;5659457;28;5725197;-62
2021/03/28 05:32:39;;;;;;;;;11.67;11.00;;;;;12.11;43.16;99980.97;5666702;28;5684540;-62
2021/03/28 05:36:13;;;;;;;;;12.00;11.00;;;;;12.28;43.24;99983.25;5668988;27;5681435;-62
2021/03/28 05:39:44;;;;;;;;;11.67;11.00;;;;;12.38;42.66;99989.09;5666681;27;5700181;-62
2021/03/28 05:43:34;;;;;;;;;11.40;10.00;;;;;12.49;42.26;99988.47;5669991;27;4942857;-62
2021/03/28 05:47:01;;;;;;;;;12.00;11.00;;;;;12.36;42.31;99972.25;5668880;28;4926218;-62
2021/03/28 05:50:25;;;;;;;;;13.67;11.00;;;;;12.35;42.09;99971.41;5667585;28;5691828;-63
2021/03/28 05:54:26;;;;;;;;;12.33;11.67;;;;;12.61;41.79;100003.03;5666702;28;5698106;-62
2021/03/28 05:58:07;;;;;;;;;10.80;10.80;;;;;12.58;41.72;100003.47;5657119;27;4951257;-63
2021/03/28 06:01:24;;;;;;;;;14.00;13.00;;;;;12.58;41.17;100011.59;5667345;28;5699144;-62
2021/03/28 06:05:09;;;;;;;;;14.17;12.17;;;;;12.62;41.39;100012.81;5662672;27;4977347;-61
2021/03/28 06:08:56;;;;;;;;;11.00;11.00;;;;;12.55;41.67;100018.25;5670907;27;5699156;-61
2021/03/28 06:12:39;;;;;;;;;13.00;11.00;;;;;12.63;41.71;100019.06;5688265;27;4951326;-61
2021/03/28 06:16:13;;;;;;;;;11.00;10.00;;;;;12.58;41.70;100027.81;5666788;28;4959665;-61
2021/03/28 06:19:43;;;;;;;;;11.25;11.00;;;;;12.61;41.88;100021.97;5662310;28;3171077;-62
2021/03/28 06:23:35;;;;;;;;;14.67;13.00;;;;;12.61;41.97;100038.22;5655074;28;4512717;-61
2021/03/28 06:27:10;;;;;;;;;11.60;11.00;;;;;12.49;42.05;100046.13;5644491;28;4945021;-61
2021/03/28 06:31:04;;;;;;;;;14.00;13.00;;;;;12.55;42.06;100055.28;5602076;28;5689785;-61
2021/03/28 06:34:49;;;;;;;;;13.17;11.17;;;;;12.49;42.29;100051.53;5642402;28;4959645;-61
2021/03/28 06:38:22;;;;;;;;;14.71;14.00;;;;;12.49;42.29;100040.72;5643376;28;6454326;-61
2021/03/28 06:42:09;;;;;;;;;10.60;10.00;;;;;12.69;42.16;100065.09;5653603;27;4939803;-61
2021/03/28 06:45:33;;;;;;;;;14.33;12.00;;;;;12.65;42.44;100065.72;5689314;27;5690819;-61
2021/03/28 06:49:31;;;;;;;;;13.17;13.00;;;;;12.73;42.76;100066.34;5689097;27;5708502;-61
2021/03/28 06:52:57;;;;;;;;;10.33;10.00;;;;;12.73;42.61;100050.09;5676835;27;4146061;-62
2021/03/28 06:56:45;;;;;;;;;11.00;11.00;;;;;12.97;42.08;100054.06;5690229;27;5673135;-61
2021/03/28 07:00:20;;;;;;;;;14.00;12.00;;;;;13.24;42.12;100071.16;5660112;28;4966837;-61
2021/03/28 07:04:23;;;;;;;;;14.00;13.00;;;;;13.23;41.85;100069.50;5665642;28;5702624;-61
2021/03/28 07:08:04;;;;;;;;;13.17;13.00;;;;;13.30;41.79;100060.28;5641153;28;5682477;-60
2021/03/28 07:11:56;;;;;;;;;13.50;13.00;;;;;13.35;41.85;100068.63;5673465;27;4964209;-61
2021/03/28 07:15:24;;;;;;;;;12.67;12.00;;;;;13.49;41.69;100066.72;5634080;28;5696003;-61
2021/03/28 07:19:01;;;;;;;;;14.00;13.29;;;;;13.43;41.02;100078.41;5665190;28;5725255;-62
2021/03/28 07:22:30;;;;;;;;;12.67;11.33;;;;;13.47;41.11;100079.66;5654158;28;3183554;-61
2021/03/28 07:26:06;;;;;;;;;11.00;10.00;;;;;13.70;40.64;100073.75;5660572;27;4953375;-61
2021/03/28 07:30:11;;;;;;;;;12.00;10.00;;;;;14.13;39.92;100068.59;5651550;27;4949278;-61
2021/03/28 07:34:07;;;;;;;;;10.33;10.00;;;;;14.36;39.00;100062.63;5647266;28;5659535;-61
2021/03/28 07:38:08;;;;;;;;;13.00;11.00;;;;;14.70;38.03;100089.38;5643989;28;4959677;-61
2021/03/28 07:41:47;;;;;;;;;14.33;13.33;;;;;15.32;36.90;100090.34;5639084;28;4983587;-61
2021/03/28 07:45:21;;;;;;;;;14.67;12.67;;;;;15.29;35.85;100094.34;5674689;27;5689772;-61
2021/03/28 07:48:54;;;;;;;;;18.00;17.00;;;;;14.94;35.28;100099.44;5639113;28;4496620;-61
2021/03/28 07:52:48;;;;;;;;;14.00;13.29;;;;;14.55;35.93;100099.72;5665826;28;5703684;-61
2021/03/28 07:56:09;;;;;;;;;13.67;12.67;;;;;14.75;36.14;100095.00;5608374;27;5698086;-61
2021/03/28 07:59:28;;;;;;;;;10.80;9.80;;;;;14.62;35.53;100095.88;5666123;28;4919673;-61
2021/03/28 08:03:11;;;;;;;;;16.00;13.00;;;;;14.65;35.00;100106.31;5665396;28;5743950;-61
2021/03/28 08:06:37;;;;;;;;;17.71;15.71;;;;;14.67;34.42;100082.50;5615540;28;6466822;-61
2021/03/28 08:09:56;;;;;;;;;16.00;14.00;;;;;15.07;33.85;100115.63;5634131;28;3879474;-61
2021/03/28 08:13:35;;;;;;;;;14.00;13.33;;;;;15.62;33.29;100115.78;5647055;28;5708517;-61
2021/03/28 08:17:11;;;;;;;;;14.78;14.33;;;;;15.58;33.17;100084.69;5639236;28;5708491;-61
2021/03/28 08:20:56;;;;;;;;;16.00;14.67;;;;;15.98;33.02;100115.81;5666777;28;5718955;-61
2021/03/28 08:24:38;;;;;;;;;18.00;15.83;;;;;15.87;32.29;100124.72;5657989;28;5726218;-61
2021/03/28 08:28:20;;;;;;;;;14.00;13.00;;;;;16.19;31.60;100119.13;5668611;28;5705390;-61
2021/03/28 08:31:36;;;;;;;;;14.71;14.00;;;;;16.10;31.53;100128.66;5631949;27;5698154;-61
2021/03/28 08:35:02;;;;;;;;;17.00;15.00;;;;;15.74;31.52;100132.19;5655928;28;3860680;-61
2021/03/28 08:38:38;;;;;;;;;14.33;13.50;;;;;16.72;30.45;100133.72;5667298;28;4989810;-61
2021/03/28 08:42:14;;;;;;;;;12.33;12.00;;;;;17.58;28.57;100126.91;5678951;27;5702272;-61
2021/03/28 08:45:50;;;;;;;;;14.50;13.50;;;;;18.39;27.35;100132.25;5691894;27;5725125;-61
2021/03/28 08:49:01;;;;;;;;;14.00;14.00;;;;;18.26;27.74;100139.91;5678634;27;4415308;-61
2021/03/28 08:52:39;;;;;;;;;15.00;14.86;;;;;18.06;27.63;100134.81;5691480;27;5714851;-61
2021/03/28 08:56:44;;;;;;;;;16.29;14.29;;;;;18.37;27.90;100142.59;5681201;27;6481426;-61
2021/03/28 09:00:05;;;;;;;;;12.00;12.00;;;;;19.17;27.40;100133.44;5582366;28;5704473;-61
2021/03/28 09:03:24;;;;;;;;;13.17;12.00;;;;;19.17;27.16;100136.19;5691100;27;5696007;-61
2021/03/28 09:06:57;;;;;;;;;13.00;13.00;;;;;19.68;25.94;100129.66;5689836;27;6454298;-61
2021/03/28 09:10:16;;;;;;;;;14.00;13.00;;;;;19.33;26.59;100138.09;5661524;27;4440867;-61
2021/03/28 09:13:40;;;;;;;;;14.00;13.00;;;;;19.77;25.33;100136.38;5677180;27;3204497;-61
2021/03/28 09:16:57;;;;;;;;;12.00;11.50;;;;;20.64;24.96;100137.25;5672168;27;5686647;-62
2021/03/28 09:20:14;;;;;;;;;13.50;13.00;;;;;20.57;24.42;100127.59;5685138;27;4989722;-61
2021/03/28 09:23:40;;;;;;;;;13.00;12.00;;;;;20.41;24.39;100133.97;5690243;27;5689765;-61
2021/03/28 09:26:52;;;;;;;;;12.40;11.00;;;;;20.77;23.92;100135.19;5685195;27;4966861;-61
2021/03/28 09:30:26;;;;;;;;;13.33;12.00;;;;;20.09;24.40;100140.09;5690233;27;5708491;-61
2021/03/28 09:33:53;;;;;;;;;13.00;12.00;;;;;20.04;24.55;100137.28;5688582;27;5688740;-61
2021/03/28 09:37:08;;;;;;;;;12.67;12.00;;;;;20.10;24.96;100132.69;5686668;27;5691813;-61
2021/03/28 09:40:26;;;;;;;;;12.33;12.00;;;;;19.43;25.23;100149.22;5666167;28;5717236;-62
2021/03/28 09:43:39;;;;;;;;;12.00;11.00;;;;;19.01;25.44;100140.53;5666705;28;5677242;-62
2021/03/28 09:46:53;;;;;;;;;15.00;12.00;;;;;18.67;26.20;100134.19;5675430;27;5684563;-61
2021/03/28 09:50:11;;;;;;;;;10.17;10.00;;;;;18.64;25.39;100144.78;5674365;27;5702252;-62
2021/03/28 09:53:33;;;;;;;;;12.00;12.00;;;;;18.89;25.33;100148.81;5690285;27;5702292;-61
2021/03/28 09:56:59;;;;;;;;;13.50;12.50;;;;;18.51;25.51;100143.97;5689890;27;5702591;-62
2021/03/28 10:00:30;;;;;;;;;13.00;12.00;;;;;18.55;26.47;100147.06;5684198;27;4954411;-62
2021/03/28 10:03:48;;;;;;;;;13.00;12.00;;;;;18.75;26.16;100150.22;5656595;28;5685607;-62
2021/03/28 10:06:59;;;;;;;;;11.33;11.33;;;;;19.64;24.86;100144.94;5667312;28;5691853;-61
2021/03/28 10:10:44;;;;;;;;;14.00;11.67;;;;;20.53;24.45;100143.69;5665764;28;4940908;-62
2021/03/28 10:14:22;;;;;;;;;12.71;12.00;;;;;20.26;24.22;100140.88;5666879;28;5692855;-61
2021/03/28 10:17:43;;;;;;;;;12.67;12.00;;;;;19.88;23.96;100133.53;5677636;27;5698118;-61
2021/03/28 10:21:07;;;;;;;;;13.50;12.50;;;;;20.34;23.45;100145.09;5679891;27;5704355;-61
2021/03/28 10:24:41;;;;;;;;;13.00;12.22;;;;;19.83;23.60;100151.78;5681472;27;5687709;-61
2021/03/28 10:28:10;;;;;;;;;13.00;13.00;;;;;20.02;23.25;100133.16;5693096;27;6468880;-61
2021/03/28 10:31:44;;;;;;;;;11.00;11.00;;;;;20.15;23.67;100130.88;5679264;27;3889854;-61
2021/03/28 10:35:09;;;;;;;;;14.00;12.57;;;;;21.05;23.23;100146.72;5704984;27;5703297;-61
2021/03/28 10:38:35;;;;;;;;;15.00;13.00;;;;;21.48;22.80;100112.00;5676021;27;4076368;-61
2021/03/28 10:42:03;;;;;;;;;12.33;12.33;;;;;21.82;21.72;100129.78;5671831;27;5681459;-61
2021/03/28 10:45:21;;;;;;;;;13.86;13.43;;;;;21.49;22.29;100143.84;5689421;27;6454301;-61
2021/03/28 10:49:02;;;;;;;;;12.00;11.17;;;;;21.65;21.72;100122.84;5667345;27;5696027;-61
2021/03/28 10:52:31;;;;;;;;;11.20;10.00;;;;;21.01;21.33;100120.09;5663603;27;4929402;-61
2021/03/28 10:56:02;;;;;;;;;15.29;15.00;;;;;20.56;22.31;100129.50;5666577;27;5735593;-61
2021/03/28 10:59:43;;;;;;;;;12.00;11.00;;;;;21.14;21.79;100130.66;5667172;27;5698087;-61
2021/03/28 11:03:42;;;;;;;;;16.00;14.83;;;;;20.91;22.12;100122.72;5656483;28;5741869;-61
2021/03/28 11:07:25;;;;;;;;;13.00;13.00;;;;;20.26;22.57;100123.63;5666060;28;5733605;-61
2021/03/28 11:10:47;;;;;;;;;14.67;12.67;;;;;21.29;22.50;100130.78;5583545;28;4189807;-61
2021/03/28 11:14:14;;;;;;;;;12.00;11.00;;;;;21.93;21.71;100145.28;5588546;28;4954373;-61
2021/03/28 11:17:48;;;;;;;;;9.00;9.00;;;;;22.10;20.31;100138.75;5608411;28;4886672;-61
2021/03/28 11:20:57;;;;;;;;;12.00;11.00;;;;;22.51;20.61;100131.53;5561947;28;5692898;-61
2021/03/28 11:24:31;;;;;;;;;11.00;10.17;;;;;22.54;19.67;100134.56;5622126;28;4963769;-61
2021/03/28 11:28:18;;;;;;;;;9.00;9.00;;;;;21.66;20.26;100135.44;5602455;28;4863722;-61
2021/03/28 11:31:38;;;;;;;;;9.40;8.40;;;;;21.31;20.69;100133.25;5591206;28;4887694;-61
2021/03/28 11:34:59;;;;;;;;;10.33;10.33;;;;;21.48;21.79;100120.22;5572113;28;3812757;-61
2021/03/28 11:38:48;;;;;;;;;8.83;8.83;;;;;22.00;20.10;100125.81;5586487;28;4878378;-61
2021/03/28 11:41:57;;;;;;;;;9.40;9.00;;;;;21.55;21.24;100124.38;5549385;28;4889769;-61
2021/03/28 11:45:35;;;;;;;;;9.00;8.00;;;;;21.26;21.35;100112.09;5664958;28;3798161;-61
2021/03/28 11:49:10;;;;;;;;;9.00;8.00;;;;;22.07;21.18;100112.66;5649409;28;4159708;-61
2021/03/28 11:52:21;;;;;;;;;9.00;9.00;;;;;22.51;20.03;100113.13;5655672;28;4136658;-61
2021/03/28 11:55:38;;;;;;;;;11.00;9.60;;;;;22.85;20.21;100119.00;5656815;27;4911669;-61
2021/03/28 11:59:02;;;;;;;;;10.00;10.00;;;;;22.71;20.55;100115.97;5668623;28;4918943;-61
2021/03/28 12:02:22;;;;;;;;;10.00;10.00;;;;;22.11;20.30;100119.28;5656024;27;4206510;-61
2021/03/28 12:05:51;;;;;;;;;13.67;12.50;;;;;21.74;21.09;100107.50;5668968;28;4962805;-61
2021/03/28 12:09:02;;;;;;;;;10.00;10.00;;;;;21.53;20.55;100090.09;5671577;28;4942255;-61
2021/03/28 12:12:22;;;;;;;;;10.00;10.00;;;;;22.26;20.38;100102.88;5667391;28;4933534;-61
2021/03/28 12:15:56;;;;;;;;;11.00;11.00;;;;;22.50;19.76;100105.13;5669341;27;5691885;-62
2021/03/28 12:19:01;;;;;;;;;10.00;10.00;;;;;22.32;19.43;100081.72;5697312;27;3354502;-61
2021/03/28 12:22:15;;;;;;;;;10.00;9.33;;;;;21.83;19.74;100086.69;5691416;27;4920003;-61
2021/03/28 12:25:28;;;;;;;;;15.14;14.00;;;;;22.38;20.00;100100.69;5689719;27;6458468;-62
2021/03/28 12:28:49;;;;;;;;;19.50;18.50;;;;;22.47;19.59;100090.03;5677392;27;4375254;-62
2021/03/28 12:31:55;;;;;;;;;11.00;10.00;;;;;22.09;19.80;100088.50;5690827;27;4949184;-62
2021/03/28 12:35:10;;;;;;;;;10.00;10.00;;;;;21.87;20.13;100096.06;5692997;27;4926266;-62
2021/03/28 12:38:33;;;;;;;;;12.00;11.00;;;;;21.55;20.37;100085.16;5684232;27;5694306;-61
2021/03/28 12:41:37;;;;;;;;;11.00;10.00;;;;;21.60;20.72;100090.66;5663602;28;4524222;-61
2021/03/28 12:44:45;;;;;;;;;10.50;10.33;;;;;21.82;20.24;100085.03;5667117;28;4944022;-61
2021/03/28 12:47:54;;;;;;;;;10.83;10.83;;;;;21.21;20.35;100081.88;5687646;27;5696038;-61
2021/03/28 12:50:59;;;;;;;;;9.00;9.00;;;;;21.24;21.34;100081.38;5647615;28;4390889;-61
2021/03/28 12:54:15;;;;;;;;;9.00;9.00;;;;;21.04;21.61;100081.16;5663928;28;4308566;-61
2021/03/28 12:57:29;;;;;;;;;12.00;11.00;;;;;20.45;21.57;100094.00;5671768;28;5687659;-61
2021/03/28 13:00:44;;;;;;;;;11.00;10.00;;;;;20.28;21.71;100077.66;5670319;28;4953665;-61
2021/03/28 13:03:52;;;;;;;;;10.60;9.60;;;;;19.99;22.53;100090.66;5665724;28;4937747;-62
2021/03/28 13:06:59;;;;;;;;;11.50;11.00;;;;;19.86;22.38;100080.94;5664599;28;5673099;-62
2021/03/28 13:10:12;;;;;;;;;11.80;10.80;;;;;20.00;22.24;100069.59;5666553;27;4930432;-62
2021/03/28 13:13:24;;;;;;;;;12.00;11.00;;;;;19.78;22.26;100078.66;5663060;28;5688762;-62
2021/03/28 13:16:32;;;;;;;;;10.00;10.00;;;;;19.44;22.44;100075.16;5670805;27;5668937;-61
2021/03/28 13:19:39;;;;;;;;;12.00;11.00;;;;;19.31;22.95;100067.25;5654384;27;4973641;-61
2021/03/28 13:22:48;;;;;;;;;11.00;10.00;;;;;19.40;23.14;100078.63;5666954;28;4929776;-62
2021/03/28 13:26:16;;;;;;;;;9.80;9.80;;;;;19.30;23.17;100084.72;5659372;28;4911678;-62
2021/03/28 13:29:36;;;;;;;;;11.40;10.00;;;;;19.29;23.12;100082.25;5666356;28;4941870;-62
2021/03/28 13:32:46;;;;;;;;;9.40;9.40;;;;;19.26;22.74;100088.22;5666022;28;4897041;-62
2021/03/28 13:35:55;;;;;;;;;11.00;11.00;;;;;19.29;22.80;100074.06;5668997;28;4966865;-61
2021/03/28 13:39:19;;;;;;;;;9.83;9.83;;;;;19.32;23.27;100070.81;5667737;27;4944999;-61
2021/03/28 13:42:30;;;;;;;;;10.00;9.17;;;;;19.45;22.65;100068.59;5666774;27;5648107;-61
2021/03/28 13:45:38;;;;;;;;;10.00;10.00;;;;;19.72;22.67;100070.63;5665528;27;4907493;-61
2021/03/28 13:48:46;;;;;;;;;9.60;9.00;;;;;19.59;22.27;100071.81;5662906;28;4900197;-61
2021/03/28 13:52:08;;;;;;;;;11.17;10.17;;;;;19.43;22.40;100042.53;5645270;28;5685633;-62
2021/03/28 13:55:23;;;;;;;;;11.00;11.00;;;;;19.68;22.64;100069.47;5664030;27;3833584;-62
2021/03/28 13:58:32;;;;;;;;;9.60;8.60;;;;;19.75;21.73;100072.84;5690979;27;4904384;-61
2021/03/28 14:01:49;;;;;;;;;10.00;9.67;;;;;19.75;22.10;100067.34;5689460;27;4939779;-62
2021/03/28 14:04:57;;;;;;;;;10.20;9.80;;;;;19.69;22.12;100069.22;5684403;27;4954339;-62
2021/03/28 14:08:04;;;;;;;;;11.00;10.00;;;;;19.81;22.52;100069.09;5656553;27;4914784;-62
2021/03/28 14:11:19;;;;;;;;;14.00;11.00;;;;;19.84;22.40;100063.13;5668549;28;4956434;-62
2021/03/28 14:14:27;;;;;;;;;11.00;11.00;;;;;19.82;22.66;100070.75;5653149;28;4089846;-62
2021/03/28 14:17:34;;;;;;;;;10.60;10.60;;;;;19.81;21.86;100071.81;5664801;27;4934126;-62
2021/03/28 14:20:44;;;;;;;;;11.00;10.00;;;;;19.83;21.95;100065.03;5665566;27;4938766;-61
2021/03/28 14:23:54;;;;;;;;;10.20;10.00;;;;;19.84;22.42;100082.28;5655793;27;4916888;-61
2021/03/28 14:27:16;;;;;;;;;10.00;9.50;;;;;19.72;21.94;100065.13;5656757;28;5660619;-63
2021/03/28 14:30:30;;;;;;;;;9.00;9.00;;;;;19.22;22.14;100065.19;5657205;28;4885736;-61
2021/03/28 14:33:50;;;;;;;;;8.83;8.83;;;;;18.92;22.56;100054.56;5664238;28;4865856;-61
2021/03/28 14:37:33;;;;;;;;;9.00;8.00;;;;;18.82;22.22;100062.59;5691466;27;4880422;-61
2021/03/28 14:40:51;;;;;;;;;9.67;9.67;;;;;18.69;22.36;100069.22;5666188;28;4900248;-62
2021/03/28 14:44:46;;;;;;;;;9.00;7.56;;;;;18.39;23.01;100044.03;5681415;28;4880455;-61
2021/03/28 14:48:10;;;;;;;;;9.00;9.00;;;;;18.54;22.99;100064.31;5665976;28;3815418;-61
2021/03/28 14:51:22;;;;;;;;;7.00;7.00;;;;;18.74;22.66;100063.00;5655441;28;4878335;-61
2021/03/28 14:54:33;;;;;;;;;9.60;8.60;;;;;18.73;22.47;100067.66;5669408;27;4884028;-61
2021/03/28 14:57:45;;;;;;;;;9.00;8.60;;;;;18.44;22.39;100041.41;5659918;28;4874165;-62
2021/03/28 15:00:58;;;;;;;;;9.33;9.33;;;;;18.39;22.70;100069.44;5679600;28;5597068;-62
2021/03/28 15:04:48;;;;;;;;;7.22;7.22;;;;;18.45;22.89;100064.91;5683109;28;4157579;-61
2021/03/28 15:08:11;;;;;;;;;8.00;8.00;;;;;18.13;22.86;100059.91;5638072;27;4880402;-61
2021/03/28 15:11:23;;;;;;;;;6.00;6.00;;;;;18.00;23.22;100071.13;5661962;27;4860072;-61
2021/03/28 15:14:34;;;;;;;;;7.20;6.60;;;;;18.04;23.40;100066.00;5676836;28;4869975;-61
2021/03/28 15:17:44;;;;;;;;;9.00;8.00;;;;;18.08;22.84;100065.28;5665839;28;4153329;-61